Maribel — LAGU6 — position and weather

sailwx.info

Track history (hours):
 
Tides and Currents Weather Stations Pressure Air Temp Water Temp Dewpoint Dewpoint Depression Visibility Wind Speed Wind Dir Waves Ship Positions

Maribel

Last reported at 2016-Dec-06 23:20 UTC. Time now 2016-Dec-07 14:25 UTC.
Position N 39°51' W 027°53'.

Length 228 m; draft 13.7 m.

Type: Ship. MMSI: 257872000.

Date/timePositionNaut miles runAvg speedWind from/ knotsBaromVisibWave heightAir tempDewpointWater temp
2016-Dec-06 23:20N 39°51' W 027°53'1012.6
2016-Dec-06 22:33N 39°48' W 028°05'1212.5
2016-Dec-06 21:33N 39°44' W 028°21'1312.6
2016-Dec-06 20:33N 39°40' W 028°37'2512.5
2016-Dec-06 18:34N 39°32' W 029°07'1212.4
2016-Dec-06 17:33N 39°29' W 029°23'1312.6
2016-Dec-06 16:33N 39°24' W 029°38'1312.6
2016-Dec-06 15:33N 39°21' W 029°54'1312.6
2016-Dec-06 14:33N 39°17' W 030°09'1312.7
2016-Dec-06 13:33N 39°13' W 030°25'  
2016-Nov-27 18:15N 26°19' W 079°25'913.1
2016-Nov-27 17:33N 26°10' W 079°26'1313.2
2016-Nov-27 16:32N 25°57' W 079°28'1313.1
2016-Nov-27 15:33N 25°44' W 079°30'  
Track history (hours):
 
Tides and Currents Weather Stations Pressure Air Temp Water Temp Dewpoint Dewpoint Depression Visibility Wind Speed Wind Dir Waves Ship Positions

Maribel

Last reported at 2016-Dec-06 23:20 UTC. Time now 2016-Dec-07 14:25 UTC.
Position N 39°51' W 027°53'.

Length 228 m; draft 13.7 m.

Type: Ship. MMSI: 257872000.

Date/timePositionNaut miles runAvg speedWind from/ knotsBaromVisibWave heightAir tempDewpointWater temp
2016-Dec-06 23:20N 39°51' W 027°53'1012.6
2016-Dec-06 22:33N 39°48' W 028°05'1212.5
2016-Dec-06 21:33N 39°44' W 028°21'1312.6
2016-Dec-06 20:33N 39°40' W 028°37'2512.5
2016-Dec-06 18:34N 39°32' W 029°07'1212.4
2016-Dec-06 17:33N 39°29' W 029°23'1312.6
2016-Dec-06 16:33N 39°24' W 029°38'1312.6
2016-Dec-06 15:33N 39°21' W 029°54'1312.6
2016-Dec-06 14:33N 39°17' W 030°09'1312.7
2016-Dec-06 13:33N 39°13' W 030°25'  
2016-Nov-27 18:15N 26°19' W 079°25'913.1
2016-Nov-27 17:33N 26°10' W 079°26'1313.2
2016-Nov-27 16:32N 25°57' W 079°28'1313.1
2016-Nov-27 15:33N 25°44' W 079°30'  

Dump ship's entire track history